Time;durP1;ratioP1;P1;durP2;ratioP2;P2;SDS_P1;SDS_P2;PMS_P1;PMS_P2;Temp;Humidity;BMP_temperature;BMP_pressure;BME280_temperature;BME280_humidity;BME280_pressure;Samples;Min_cycle;Max_cycle;Signal;HPM_P1;HPM_P2
2022/05/25 00:01:00;;;;;;;0.00;0.00;;;;;;;;;;5037948;28;93147;-75
2022/05/25 00:03:28;;;;;;;0.00;0.00;;;;;;;;;;5038184;28;93006;-75
2022/05/25 00:05:57;;;;;;;0.00;0.00;;;;;;;;;;5036332;28;94691;-75
2022/05/25 00:08:23;;;;;;;0.00;0.00;;;;;;;;;;5038065;28;95700;-74
2022/05/25 00:10:50;;;;;;;0.00;0.00;;;;;;;;;;5038134;28;93516;-75
2022/05/25 00:13:16;;;;;;;0.00;0.00;;;;;;;;;;5041253;28;93037;-75
2022/05/25 00:15:43;;;;;;;0.00;0.00;;;;;;;;;;5020103;28;94731;-75
2022/05/25 00:18:09;;;;;;;0.00;0.00;;;;;;;;;;5020071;28;92263;-74
2022/05/25 00:20:36;;;;;;;0.00;0.00;;;;;;;;;;5037973;28;92417;-75
2022/05/25 00:23:02;;;;;;;0.00;0.00;;;;;;;;;;5038513;28;92211;-74
2022/05/25 00:25:30;;;;;;;0.00;0.00;;;;;;;;;;5038370;28;92330;-75
2022/05/25 00:27:57;;;;;;;0.60;0.60;;;;;;;;;;5037937;28;92886;-77
2022/05/25 00:30:25;;;;;;;0.00;0.00;;;;;;;;;;5036029;28;96751;-76
2022/05/25 00:32:51;;;;;;;0.00;0.00;;;;;;;;;;5041213;28;92318;-75
2022/05/25 00:35:19;;;;;;;0.00;0.00;;;;;;;;;;5038374;28;92874;-75
2022/05/25 00:37:46;;;;;;;0.00;0.00;;;;;;;;;;5038320;28;92389;-75
2022/05/25 00:40:14;;;;;;;0.00;0.00;;;;;;;;;;5037350;27;93272;-75
2022/05/25 00:42:40;;;;;;;0.00;0.00;;;;;;;;;;5036797;28;92818;-74
2022/05/25 00:45:07;;;;;;;0.00;0.00;;;;;;;;;;5037729;28;92237;-75
2022/05/25 00:47:34;;;;;;;0.00;0.00;;;;;;;;;;5038248;28;93462;-75
2022/05/25 00:50:02;;;;;;;0.00;0.00;;;;;;;;;;5037363;28;93842;-75
2022/05/25 00:52:28;;;;;;;0.00;0.00;;;;;;;;;;5037484;28;92344;-75
2022/05/25 00:54:59;;;;;;;0.00;0.00;;;;;;;;;;5038770;28;94740;-76
2022/05/25 00:57:27;;;;;;;0.00;0.00;;;;;;;;;;5037534;28;92305;-75
2022/05/25 01:00:06;;;;;;;0.00;0.00;;;;;;;;;;5037684;28;92369;-74
2022/05/25 01:02:37;;;;;;;0.00;0.00;;;;;;;;;;5037272;28;93627;-75
2022/05/25 01:05:03;;;;;;;0.00;0.00;;;;;;;;;;5037485;28;92414;-75
2022/05/25 01:07:41;;;;;;;0.00;0.00;;;;;;;;;;5037247;28;93008;-76
2022/05/25 01:10:15;;;;;;;0.00;0.00;;;;;;;;;;5036048;27;93180;-75
2022/05/25 01:12:41;;;;;;;0.00;0.00;;;;;;;;;;5019123;27;92309;-75
2022/05/25 01:15:11;;;;;;;0.00;0.00;;;;;;;;;;5040919;27;92673;-75
2022/05/25 01:17:44;;;;;;;0.00;0.00;;;;;;;;;;5039750;27;94028;-75
2022/05/25 01:20:23;;;;;;;0.00;0.00;;;;;;;;;;5034825;27;95622;-75
2022/05/25 01:22:58;;;;;;;0.00;0.00;;;;;;;;;;5018129;27;95068;-74
2022/05/25 01:25:30;;;;;;;0.00;0.00;;;;;;;;;;5036804;27;92373;-74
2022/05/25 01:28:00;;;;;;;0.00;0.00;;;;;;;;;;5019173;28;93467;-75
2022/05/25 01:30:30;;;;;;;0.00;0.00;;;;;;;;;;5040274;27;94701;-75
2022/05/25 01:33:02;;;;;;;0.00;0.00;;;;;;;;;;5036868;27;92419;-76
2022/05/25 01:35:31;;;;;;;0.25;0.25;;;;;;;;;;5040494;27;92369;-75
2022/05/25 01:38:01;;;;;;;0.00;0.00;;;;;;;;;;5036715;27;93222;-74
2022/05/25 01:40:40;;;;;;;0.00;0.00;;;;;;;;;;5039747;27;92338;-75
2022/05/25 01:43:09;;;;;;;0.00;0.00;;;;;;;;;;5037597;27;93913;-75
2022/05/25 01:45:40;;;;;;;0.00;0.00;;;;;;;;;;5034768;27;94684;-74
2022/05/25 01:48:07;;;;;;;0.00;0.00;;;;;;;;;;5036238;27;95857;-75
2022/05/25 01:50:41;;;;;;;0.00;0.00;;;;;;;;;;5036464;27;92574;-75
2022/05/25 01:53:09;;;;;;;0.00;0.00;;;;;;;;;;5040533;27;92280;-75
2022/05/25 01:55:40;;;;;;;0.00;0.00;;;;;;;;;;5039321;27;93295;-74
2022/05/25 01:58:10;;;;;;;0.00;0.00;;;;;;;;;;5039871;27;93236;-74
2022/05/25 02:00:39;;;;;;;0.10;0.10;;;;;;;;;;5040040;27;92333;-75
2022/05/25 02:06:10;;;;;;;0.00;0.00;;;;;;;;;;5038720;27;93776;-75
2022/05/25 02:08:42;;;;;;;0.00;0.00;;;;;;;;;;5039800;27;92969;-74
2022/05/25 02:11:15;;;;;;;0.00;0.00;;;;;;;;;;5019604;28;98779;-74
2022/05/25 02:14:00;;;;;;;0.00;0.00;;;;;;;;;;5042414;27;92474;-74
2022/05/25 02:16:35;;;;;;;0.00;0.00;;;;;;;;;;5039015;27;93318;-74
2022/05/25 02:19:24;;;;;;;0.00;0.00;;;;;;;;;;5038983;27;93607;-74
2022/05/25 02:21:59;;;;;;;0.00;0.00;;;;;;;;;;5036409;27;92302;-75
2022/05/25 02:24:28;;;;;;;0.00;0.00;;;;;;;;;;5042245;27;92301;-75
2022/05/25 02:27:03;;;;;;;0.00;0.00;;;;;;;;;;5038547;27;92422;-74
2022/05/25 02:29:33;;;;;;;0.00;0.00;;;;;;;;;;5039664;27;92722;-74
2022/05/25 02:32:05;;;;;;;0.00;0.00;;;;;;;;;;5039173;27;92948;-74
2022/05/25 02:34:32;;;;;;;0.00;0.00;;;;;;;;;;5038842;27;92535;-74
2022/05/25 02:36:58;;;;;;;0.00;0.00;;;;;;;;;;5037634;27;94791;-74
2022/05/25 02:39:25;;;;;;;0.00;0.00;;;;;;;;;;5038155;27;93356;-75
2022/05/25 02:41:53;;;;;;;0.00;0.00;;;;;;;;;;5039239;27;92282;-74
2022/05/25 02:44:20;;;;;;;0.00;0.00;;;;;;;;;;5038944;27;93391;-74
2022/05/25 02:46:47;;;;;;;0.30;0.30;;;;;;;;;;5041973;27;92948;-74
2022/05/25 02:49:13;;;;;;;0.00;0.00;;;;;;;;;;5039024;27;92609;-74
2022/05/25 02:51:40;;;;;;;0.00;0.00;;;;;;;;;;5020629;27;95339;-74
2022/05/25 02:54:07;;;;;;;0.00;0.00;;;;;;;;;;5039180;27;91670;-74
2022/05/25 02:56:33;;;;;;;0.00;0.00;;;;;;;;;;5038812;27;93235;-75
2022/05/25 02:59:00;;;;;;;0.00;0.00;;;;;;;;;;5038922;27;93707;-75
2022/05/25 03:01:26;;;;;;;0.00;0.00;;;;;;;;;;5037119;27;94681;-75
2022/05/25 03:03:53;;;;;;;0.00;0.00;;;;;;;;;;5038436;27;95296;-74
2022/05/25 03:06:19;;;;;;;0.00;0.00;;;;;;;;;;5038164;27;93224;-75
2022/05/25 03:08:46;;;;;;;0.00;0.00;;;;;;;;;;5041264;27;92850;-74
2022/05/25 03:11:12;;;;;;;0.00;0.00;;;;;;;;;;5020882;27;93484;-74
2022/05/25 03:13:39;;;;;;;0.00;0.00;;;;;;;;;;5038295;27;93544;-74
2022/05/25 03:16:07;;;;;;;0.00;0.00;;;;;;;;;;5038504;27;93668;-74
2022/05/25 03:18:34;;;;;;;0.00;0.00;;;;;;;;;;5038911;27;92091;-74
2022/05/25 03:21:00;;;;;;;0.00;0.00;;;;;;;;;;5038186;27;94622;-74
2022/05/25 03:23:27;;;;;;;0.00;0.00;;;;;;;;;;5038272;27;93329;-74
2022/05/25 03:25:53;;;;;;;0.00;0.00;;;;;;;;;;5036437;27;96380;-74
2022/05/25 03:28:19;;;;;;;0.00;0.00;;;;;;;;;;5038006;27;92437;-73
2022/05/25 03:30:47;;;;;;;0.00;0.00;;;;;;;;;;5041226;27;93005;-74
2022/05/25 03:33:13;;;;;;;0.00;0.00;;;;;;;;;;5001396;27;93319;-74
2022/05/25 03:35:40;;;;;;;0.00;0.00;;;;;;;;;;5038017;27;92426;-75
2022/05/25 03:38:06;;;;;;;0.00;0.00;;;;;;;;;;5037819;27;93478;-75
2022/05/25 03:40:33;;;;;;;0.00;0.00;;;;;;;;;;5037890;27;92377;-74
2022/05/25 03:42:59;;;;;;;0.00;0.00;;;;;;;;;;5039154;27;93435;-75
2022/05/25 03:45:26;;;;;;;0.00;0.00;;;;;;;;;;5021830;27;92922;-75
2022/05/25 03:47:53;;;;;;;0.00;0.00;;;;;;;;;;5037985;27;92431;-74
2022/05/25 03:50:19;;;;;;;0.00;0.00;;;;;;;;;;5035591;27;95276;-75
2022/05/25 03:52:46;;;;;;;0.00;0.00;;;;;;;;;;5041113;27;93849;-75
2022/05/25 03:55:13;;;;;;;0.00;0.00;;;;;;;;;;5040958;27;94401;-74
2022/05/25 03:57:39;;;;;;;0.00;0.00;;;;;;;;;;5037813;27;94071;-74
2022/05/25 04:00:06;;;;;;;0.00;0.00;;;;;;;;;;5038062;27;92266;-75
2022/05/25 04:02:32;;;;;;;0.00;0.00;;;;;;;;;;5037774;27;93357;-75
2022/05/25 04:05:08;;;;;;;0.00;0.00;;;;;;;;;;5036834;27;93670;-75
2022/05/25 04:07:35;;;;;;;0.00;0.00;;;;;;;;;;5038075;27;92158;-75
2022/05/25 04:10:03;;;;;;;0.00;0.00;;;;;;;;;;5037949;28;93246;-75
2022/05/25 04:12:30;;;;;;;0.00;0.00;;;;;;;;;;5038055;28;93566;-75
2022/05/25 04:14:56;;;;;;;0.32;0.32;;;;;;;;;;5039094;28;94845;-75
2022/05/25 04:17:22;;;;;;;0.00;0.00;;;;;;;;;;5018871;28;95357;-75
2022/05/25 04:19:50;;;;;;;0.00;0.00;;;;;;;;;;5038384;28;92379;-75
2022/05/25 04:22:18;;;;;;;0.00;0.00;;;;;;;;;;5038094;28;93244;-75
2022/05/25 04:24:44;;;;;;;0.00;0.00;;;;;;;;;;5037981;28;93796;-75
2022/05/25 04:27:12;;;;;;;0.00;0.00;;;;;;;;;;5038028;28;92163;-75
2022/05/25 04:29:39;;;;;;;0.00;0.00;;;;;;;;;;5037961;28;93331;-75
2022/05/25 04:32:06;;;;;;;0.00;0.00;;;;;;;;;;5037328;28;94067;-75
2022/05/25 04:34:33;;;;;;;0.00;0.00;;;;;;;;;;5041022;28;92551;-75
2022/05/25 04:37:48;;;;;;;0.00;0.00;;;;;;;;;;5037453;28;94379;-75
2022/05/25 04:39:46;;;;;;;0.00;0.00;;;;;;;;;;5035963;28;94705;-75
2022/05/25 04:42:12;;;;;;;0.00;0.00;;;;;;;;;;5037525;28;95669;-75
2022/05/25 04:44:39;;;;;;;0.00;0.00;;;;;;;;;;5019491;28;92473;-75
2022/05/25 04:47:06;;;;;;;0.00;0.00;;;;;;;;;;5037631;28;92216;-75
2022/05/25 04:49:32;;;;;;;0.00;0.00;;;;;;;;;;5019609;28;94994;-75
2022/05/25 04:51:58;;;;;;;0.03;0.03;;;;;;;;;;5037540;28;93722;-75
2022/05/25 04:54:25;;;;;;;0.00;0.00;;;;;;;;;;5037713;28;93212;-75
2022/05/25 04:59:36;;;;;;;0.00;0.00;;;;;;;;;;5037680;28;92377;-75
2022/05/25 05:02:03;;;;;;;0.00;0.00;;;;;;;;;;5037486;28;93402;-76
2022/05/25 05:04:29;;;;;;;0.00;0.00;;;;;;;;;;5035481;28;96128;-75
2022/05/25 05:06:56;;;;;;;0.00;0.00;;;;;;;;;;5037022;28;92440;-75
2022/05/25 05:09:22;;;;;;;0.00;0.00;;;;;;;;;;5019436;28;94980;-76
2022/05/25 05:11:48;;;;;;;0.00;0.00;;;;;;;;;;5019124;28;93439;-76
2022/05/25 05:14:15;;;;;;;0.00;0.00;;;;;;;;;;5037292;28;92355;-76
2022/05/25 05:16:41;;;;;;;0.00;0.00;;;;;;;;;;5037311;28;93667;-76
2022/05/25 05:19:20;;;;;;;0.00;0.00;;;;;;;;;;5024237;28;95796;-76
2022/05/25 05:21:59;;;;;;;0.00;0.00;;;;;;;;;;5023228;28;95736;-76
2022/05/25 05:24:29;;;;;;;2.65;0.95;;;;;;;;;;5038260;28;92840;-76
2022/05/25 05:26:56;;;;;;;0.10;0.10;;;;;;;;;;5038980;28;92173;-76
2022/05/25 05:29:24;;;;;;;0.10;0.10;;;;;;;;;;5039742;28;94593;-76
2022/05/25 05:31:51;;;;;;;1.65;1.00;;;;;;;;;;5040529;28;93473;-76
2022/05/25 05:34:17;;;;;;;0.00;0.00;;;;;;;;;;5040771;28;92967;-76
2022/05/25 05:36:47;;;;;;;0.10;0.10;;;;;;;;;;5040004;28;93802;-77
2022/05/25 05:39:15;;;;;;;0.08;0.08;;;;;;;;;;5022885;28;93715;-76
2022/05/25 05:41:47;;;;;;;0.00;0.00;;;;;;;;;;5043434;28;92285;-76
2022/05/25 05:44:16;;;;;;;0.10;0.10;;;;;;;;;;5040445;28;93029;-76
2022/05/25 05:46:43;;;;;;;0.10;0.10;;;;;;;;;;5040826;28;91541;-76
2022/05/25 05:49:10;;;;;;;0.10;0.10;;;;;;;;;;5040107;28;92284;-76
2022/05/25 05:51:37;;;;;;;0.10;0.10;;;;;;;;;;5040197;28;93789;-76
2022/05/25 05:54:03;;;;;;;0.20;0.20;;;;;;;;;;5038824;28;94635;-76
2022/05/25 05:56:32;;;;;;;0.10;0.10;;;;;;;;;;5040146;28;95927;-76
2022/05/25 05:58:59;;;;;;;0.10;0.10;;;;;;;;;;5040194;28;92188;-76
2022/05/25 06:01:25;;;;;;;0.00;0.00;;;;;;;;;;5040244;28;92375;-76
2022/05/25 06:03:52;;;;;;;0.10;0.10;;;;;;;;;;5042584;28;93369;-77
2022/05/25 06:06:18;;;;;;;0.10;0.10;;;;;;;;;;5022335;28;92397;-76
2022/05/25 06:08:46;;;;;;;0.25;0.25;;;;;;;;;;5040080;28;93456;-76
2022/05/25 06:11:16;;;;;;;0.22;0.22;;;;;;;;;;5040286;28;93154;-76
2022/05/25 06:13:42;;;;;;;0.00;0.00;;;;;;;;;;5040087;28;92213;-76
2022/05/25 06:21:40;;;;;;;0.20;0.20;;;;;;;;;;5040082;28;92466;-74
2022/05/25 06:24:06;;;;;;;0.10;0.10;;;;;;;;;;5040050;28;92907;-74
2022/05/25 06:26:34;;;;;;;0.15;0.15;;;;;;;;;;5042766;28;93588;-73
2022/05/25 06:29:01;;;;;;;0.00;0.00;;;;;;;;;;5039389;28;93471;-73
2022/05/25 06:31:28;;;;;;;0.43;0.43;;;;;;;;;;5039529;28;93749;-73
2022/05/25 06:33:54;;;;;;;0.20;0.20;;;;;;;;;;5039746;28;92236;-74
2022/05/25 06:36:25;;;;;;;0.40;0.40;;;;;;;;;;5039939;28;93384;-74
2022/05/25 06:38:52;;;;;;;0.22;0.22;;;;;;;;;;5020732;28;93185;-74
2022/05/25 06:41:18;;;;;;;0.38;0.38;;;;;;;;;;5039463;28;92302;-75
2022/05/25 06:43:45;;;;;;;0.10;0.10;;;;;;;;;;5037761;28;94735;-75
2022/05/25 06:46:12;;;;;;;0.13;0.13;;;;;;;;;;5042730;28;93706;-74
2022/05/25 06:48:47;;;;;;;0.00;0.00;;;;;;;;;;5038236;28;93736;-74
2022/05/25 06:51:15;;;;;;;0.20;0.20;;;;;;;;;;5039264;28;93560;-75
2022/05/25 06:53:42;;;;;;;0.10;0.10;;;;;;;;;;5039664;28;92186;-75
2022/05/25 06:56:08;;;;;;;0.20;0.20;;;;;;;;;;5039195;28;92621;-74
2022/05/25 06:58:35;;;;;;;0.10;0.10;;;;;;;;;;5039157;28;93988;-77
2022/05/25 07:01:02;;;;;;;0.75;0.35;;;;;;;;;;5039948;28;91513;-74
2022/05/25 07:03:33;;;;;;;0.20;0.20;;;;;;;;;;5039212;28;93082;-75
2022/05/25 07:06:03;;;;;;;0.20;0.20;;;;;;;;;;5038875;28;93277;-74
2022/05/25 07:08:30;;;;;;;0.47;0.47;;;;;;;;;;5040417;28;94699;-74
2022/05/25 07:10:56;;;;;;;1.55;0.70;;;;;;;;;;5038957;28;93545;-76
2022/05/25 07:13:23;;;;;;;0.28;0.28;;;;;;;;;;5039039;28;92318;-75
2022/05/25 07:15:54;;;;;;;0.22;0.22;;;;;;;;;;5020991;28;94884;-73
2022/05/25 07:18:20;;;;;;;0.10;0.10;;;;;;;;;;5020985;28;94343;-74
2022/05/25 07:20:47;;;;;;;0.00;0.00;;;;;;;;;;5021416;28;92315;-73
2022/05/25 07:23:13;;;;;;;0.17;0.17;;;;;;;;;;5038812;28;92736;-73
2022/05/25 07:25:39;;;;;;;0.15;0.15;;;;;;;;;;5038936;28;93239;-73
2022/05/25 07:28:06;;;;;;;0.10;0.10;;;;;;;;;;5038897;28;92156;-73
2022/05/25 07:30:33;;;;;;;1.45;0.30;;;;;;;;;;5037826;28;94763;-73
2022/05/25 07:32:59;;;;;;;0.10;0.10;;;;;;;;;;5037171;28;94703;-73
2022/05/25 07:35:26;;;;;;;0.10;0.10;;;;;;;;;;5038836;28;95695;-75
2022/05/25 07:37:53;;;;;;;0.20;0.20;;;;;;;;;;5020139;28;94865;-75
2022/05/25 07:40:21;;;;;;;0.10;0.10;;;;;;;;;;5038748;28;92447;-74
2022/05/25 07:42:49;;;;;;;0.17;0.17;;;;;;;;;;5038255;28;94713;-74
2022/05/25 07:45:16;;;;;;;0.22;0.22;;;;;;;;;;5038044;28;93514;-75
2022/05/25 07:47:42;;;;;;;0.10;0.10;;;;;;;;;;5021063;28;92181;-73
2022/05/25 07:50:08;;;;;;;0.28;0.28;;;;;;;;;;5038189;27;92978;-74
2022/05/25 07:52:36;;;;;;;0.25;0.25;;;;;;;;;;5041287;28;93056;-74
2022/05/25 07:55:03;;;;;;;2.17;0.45;;;;;;;;;;5020965;28;92892;-74
2022/05/25 07:57:30;;;;;;;0.20;0.20;;;;;;;;;;5036583;28;95473;-74
2022/05/25 07:59:56;;;;;;;0.22;0.10;;;;;;;;;;5038472;28;92275;-75
2022/05/25 08:07:56;;;;;;;0.30;0.30;;;;;;;;;;5038125;28;92154;-70
2022/05/25 08:10:24;;;;;;;0.40;0.40;;;;;;;;;;5038208;28;93232;-73
2022/05/25 08:12:53;;;;;;;0.55;0.55;;;;;;;;;;5037861;28;95145;-74
2022/05/25 08:15:19;;;;;;;0.20;0.20;;;;;;;;;;5040817;28;93475;-77
2022/05/25 08:17:46;;;;;;;0.30;0.30;;;;;;;;;;5037929;28;93677;-79
2022/05/25 08:20:12;;;;;;;0.30;0.30;;;;;;;;;;5037855;28;92269;-76
2022/05/25 08:22:39;;;;;;;0.20;0.20;;;;;;;;;;5018426;28;96876;-78
2022/05/25 08:25:06;;;;;;;0.22;0.22;;;;;;;;;;5035067;28;94109;-77
2022/05/25 08:27:33;;;;;;;0.10;0.10;;;;;;;;;;5038133;28;92329;-79
2022/05/25 08:29:59;;;;;;;0.20;0.20;;;;;;;;;;5037571;28;93458;-79
2022/05/25 08:32:25;;;;;;;0.10;0.10;;;;;;;;;;5037886;28;93826;-76
2022/05/25 08:34:52;;;;;;;0.20;0.20;;;;;;;;;;5037479;28;92221;-77
2022/05/25 08:37:19;;;;;;;0.10;0.10;;;;;;;;;;5021055;28;92323;-77
2022/05/25 08:39:45;;;;;;;0.43;0.43;;;;;;;;;;5038474;28;91479;-77
2022/05/25 08:42:14;;;;;;;0.28;0.28;;;;;;;;;;5036420;27;92401;-78
2022/05/25 08:44:42;;;;;;;0.95;0.82;;;;;;;;;;5036877;27;93222;-78
2022/05/25 08:47:09;;;;;;;0.40;0.40;;;;;;;;;;5035356;27;94668;-78
2022/05/25 08:49:37;;;;;;;0.25;0.25;;;;;;;;;;5038786;27;95620;-79
2022/05/25 08:52:07;;;;;;;0.20;0.20;;;;;;;;;;5036925;27;93307;-79
2022/05/25 08:54:35;;;;;;;0.10;0.10;;;;;;;;;;5019013;27;92327;-79
2022/05/25 08:57:04;;;;;;;5.15;1.05;;;;;;;;;;5039309;27;93076;-79
2022/05/25 08:59:35;;;;;;;0.38;0.38;;;;;;;;;;5019313;27;92776;-79
2022/05/25 09:02:14;;;;;;;0.25;0.25;;;;;;;;;;5035883;27;93846;-81
2022/05/25 09:05:11;;;;;;;0.28;0.28;;;;;;;;;;5037609;27;92444;-81
2022/05/25 09:08:27;;;;;;;;;;;;;;;;;;;;;
2022/05/25 09:12:27;;;;;;;0.20;0.20;;;;;;;;;;4960021;28;93392;-81
2022/05/25 09:15:16;;;;;;;0.32;0.32;;;;;;;;;;4980314;28;98056;-81
2022/05/25 09:18:22;;;;;;;0.50;0.50;;;;;;;;;;4997837;28;92307;-81
2022/05/25 09:21:04;;;;;;;0.20;0.20;;;;;;;;;;5018976;27;92915;-75
2022/05/25 09:23:31;;;;;;;0.20;0.20;;;;;;;;;;5040435;27;93207;-76
2022/05/25 09:25:58;;;;;;;0.10;0.10;;;;;;;;;;5037000;27;92744;-75
2022/05/25 09:28:28;;;;;;;0.32;0.32;;;;;;;;;;5035816;27;93856;-76
2022/05/25 09:30:56;;;;;;;0.15;0.15;;;;;;;;;;5036396;27;92147;-76
2022/05/25 09:36:58;;;;;;;0.10;0.10;;;;;;;;;;5030693;27;96411;-74
2022/05/25 09:39:28;;;;;;;0.57;0.57;;;;;;;;;;5036371;27;92234;-78
2022/05/25 09:41:57;;;;;;;0.47;0.47;;;;;;;;;;5034750;27;94805;-75
2022/05/25 09:44:23;;;;;;;0.10;0.10;;;;;;;;;;5038536;27;93584;-75
2022/05/25 09:46:52;;;;;;;0.10;0.10;;;;;;;;;;5039069;27;92361;-76
2022/05/25 09:49:34;;;;;;;0.10;0.10;;;;;;;;;;5035578;27;93149;-75
2022/05/25 09:52:02;;;;;;;0.10;0.10;;;;;;;;;;5036248;27;92392;-76
2022/05/25 09:54:32;;;;;;;0.10;0.10;;;;;;;;;;5035805;27;93614;-75
2022/05/25 09:57:05;;;;;;;0.10;0.10;;;;;;;;;;5035985;27;93469;-74
2022/05/25 09:59:42;;;;;;;0.08;0.08;;;;;;;;;;5038055;27;91659;-71
2022/05/25 10:02:19;;;;;;;0.10;0.10;;;;;;;;;;5037803;27;92286;-71
2022/05/25 10:04:52;;;;;;;0.10;0.10;;;;;;;;;;5019359;28;93632;-70
2022/05/25 10:07:20;;;;;;;0.17;0.17;;;;;;;;;;5034905;27;94836;-73
2022/05/25 10:09:49;;;;;;;0.10;0.10;;;;;;;;;;5040111;27;95222;-73
2022/05/25 10:12:18;;;;;;;0.10;0.10;;;;;;;;;;5036537;27;92720;-74
2022/05/25 10:15:11;;;;;;;0.15;0.15;;;;;;;;;;5039753;27;92594;-74
2022/05/25 10:17:47;;;;;;;0.15;0.15;;;;;;;;;;5034800;27;94631;-76
2022/05/25 10:20:34;;;;;;;0.10;0.10;;;;;;;;;;5039176;27;92291;-75
2022/05/25 10:23:19;;;;;;;0.10;0.10;;;;;;;;;;5039696;27;93348;-78
2022/05/25 10:25:47;;;;;;;0.10;0.10;;;;;;;;;;5039947;27;92342;-76
2022/05/25 10:28:22;;;;;;;0.10;0.10;;;;;;;;;;5039115;27;92433;-76
2022/05/25 10:36:58;;;;;;;;;;;;;;;;;;5025983;28;96674;-76
2022/05/25 10:39:28;;;;;;;0.10;0.10;;;;;;;;;;5021262;27;95455;-77
2022/05/25 10:42:06;;;;;;;0.10;0.10;;;;;;;;;;5039147;27;92311;-76
2022/05/25 10:44:54;;;;;;;0.10;0.10;;;;;;;;;;5022382;27;93338;-76
2022/05/25 10:47:36;;;;;;;0.10;0.10;;;;;;;;;;5029649;27;96765;-75
2022/05/25 10:50:07;;;;;;;0.00;0.00;;;;;;;;;;5038925;27;92166;-78
2022/05/25 10:52:42;;;;;;;0.00;0.00;;;;;;;;;;5039460;27;92764;-80
2022/05/25 10:55:09;;;;;;;0.10;0.10;;;;;;;;;;5039850;27;93104;-79
2022/05/25 10:58:10;;;;;;;0.10;0.10;;;;;;;;;;5041724;27;92316;-78
2022/05/25 11:00:52;;;;;;;0.20;0.20;;;;;;;;;;5037236;27;96580;-77
2022/05/25 11:03:32;;;;;;;0.10;0.10;;;;;;;;;;5043423;27;92234;-79
2022/05/25 11:06:13;;;;;;;0.00;0.00;;;;;;;;;;5021068;28;93207;-79
2022/05/25 11:08:46;;;;;;;0.00;0.00;;;;;;;;;;5038760;27;93105;-79
2022/05/25 11:11:20;;;;;;;0.20;0.20;;;;;;;;;;5038503;27;92321;-77
2022/05/25 11:13:52;;;;;;;0.10;0.10;;;;;;;;;;5040890;27;92953;-78
2022/05/25 11:16:19;;;;;;;;;;;;;;;;;;5038947;27;93051;-78
2022/05/25 11:18:47;;;;;;;0.00;0.00;;;;;;;;;;5041101;27;116794;-78
2022/05/25 11:21:37;;;;;;;0.10;0.10;;;;;;;;;;5042516;27;94549;-77
2022/05/25 11:24:03;;;;;;;0.03;0.03;;;;;;;;;;5002467;27;92429;-77
2022/05/25 11:26:41;;;;;;;0.10;0.10;;;;;;;;;;5017867;28;94988;-78
2022/05/25 11:29:20;;;;;;;1.80;1.65;;;;;;;;;;5038030;27;93280;-79
2022/05/25 11:32:02;;;;;;;0.00;0.00;;;;;;;;;;5038946;27;93051;-77
2022/05/25 11:34:28;;;;;;;;;;;;;;;;;;5020606;27;94486;-78
2022/05/25 11:37:09;;;;;;;0.00;0.00;;;;;;;;;;5037215;27;122992;-77
2022/05/25 11:39:42;;;;;;;0.10;0.10;;;;;;;;;;5038414;27;92394;-77
2022/05/25 11:42:21;;;;;;;0.10;0.10;;;;;;;;;;5023766;27;93197;-78
2022/05/25 11:44:57;;;;;;;0.05;0.05;;;;;;;;;;5042553;27;91563;-77
2022/05/25 11:47:29;;;;;;;0.20;0.20;;;;;;;;;;5039291;27;92387;-79
2022/05/25 11:49:55;;;;;;;0.30;0.30;;;;;;;;;;5038671;27;92338;-77
2022/05/25 11:52:41;;;;;;;0.20;0.20;;;;;;;;;;5036967;28;94529;-78
2022/05/25 11:55:24;;;;;;;0.03;0.03;;;;;;;;;;5038435;28;96346;-77
2022/05/25 11:57:56;;;;;;;0.00;0.00;;;;;;;;;;5038235;28;94296;-76
2022/05/25 12:00:41;;;;;;;0.10;0.10;;;;;;;;;;5038308;28;92360;-77
2022/05/25 12:03:20;;;;;;;0.10;0.10;;;;;;;;;;5038452;28;93405;-78
2022/05/25 12:06:06;;;;;;;0.10;0.10;;;;;;;;;;5041330;28;93060;-77
2022/05/25 12:08:35;;;;;;;0.10;0.10;;;;;;;;;;5038082;28;94045;-77
2022/05/25 12:11:21;;;;;;;0.00;0.00;;;;;;;;;;5038422;28;92301;-77
2022/05/25 12:13:53;;;;;;;0.10;0.10;;;;;;;;;;5038404;28;92222;-77
2022/05/25 12:16:28;;;;;;;0.00;0.00;;;;;;;;;;5020402;28;93552;-78
2022/05/25 12:19:21;;;;;;;0.20;0.20;;;;;;;;;;5036516;28;95446;-77
2022/05/25 12:21:49;;;;;;;0.10;0.10;;;;;;;;;;5033313;28;92249;-78
2022/05/25 12:24:29;;;;;;;0.10;0.10;;;;;;;;;;5003390;28;94697;-78
2022/05/25 12:27:02;;;;;;;0.10;0.10;;;;;;;;;;5038028;28;93653;-79
2022/05/25 12:29:43;;;;;;;0.10;0.10;;;;;;;;;;5040974;28;92326;-80
2022/05/25 12:32:12;;;;;;;0.00;0.00;;;;;;;;;;5037714;28;92910;-79
2022/05/25 12:34:40;;;;;;;0.00;0.00;;;;;;;;;;5038020;28;92294;-80
2022/05/25 12:37:11;;;;;;;0.00;0.00;;;;;;;;;;5022136;27;94382;-81
2022/05/25 12:39:47;;;;;;;2.13;1.15;;;;;;;;;;5038000;28;92987;-81
2022/05/25 12:42:23;;;;;;;0.00;0.00;;;;;;;;;;5038009;28;92315;-80
2022/05/25 12:51:15;;;;;;;0.00;0.00;;;;;;;;;;5037487;28;92355;-77
2022/05/25 12:58:09;;;;;;;0.00;0.00;;;;;;;;;;4973775;28;92396;-77
2022/05/25 13:01:12;;;;;;;0.10;0.10;;;;;;;;;;4977336;28;95883;-78
2022/05/25 13:03:46;;;;;;;0.10;0.10;;;;;;;;;;4958361;28;94003;-76
2022/05/25 13:06:37;;;;;;;0.00;0.00;;;;;;;;;;4951375;28;91833;-79
2022/05/25 13:09:40;;;;;;;0.10;0.10;;;;;;;;;;4958745;28;92338;-79
2022/05/25 13:12:33;;;;;;;0.10;0.10;;;;;;;;;;4972655;28;96166;-81
2022/05/25 13:14:59;;;;;;;0.10;0.10;;;;;;;;;;4973524;28;94783;-76
2022/05/25 13:17:43;;;;;;;0.20;0.20;;;;;;;;;;4977598;28;95893;-76
2022/05/25 13:20:13;;;;;;;0.05;0.05;;;;;;;;;;4978668;28;92360;-78
2022/05/25 13:22:39;;;;;;;0.10;0.10;;;;;;;;;;4975096;28;93776;-77
2022/05/25 13:25:09;;;;;;;0.00;0.00;;;;;;;;;;4974701;28;93331;-77
2022/05/25 13:27:56;;;;;;;0.10;0.10;;;;;;;;;;4974618;27;92507;-79
2022/05/25 13:30:43;;;;;;;0.65;0.13;;;;;;;;;;5019122;28;93026;-80
2022/05/25 13:33:19;;;;;;;0.00;0.00;;;;;;;;;;5036946;27;93219;-77
2022/05/25 13:36:04;;;;;;;0.00;0.00;;;;;;;;;;5018444;28;92346;-78
2022/05/25 13:38:55;;;;;;;0.15;0.15;;;;;;;;;;5017992;27;95970;-80
2022/05/25 13:41:24;;;;;;;0.00;0.00;;;;;;;;;;5036882;27;97113;-80
2022/05/25 13:44:04;;;;;;;0.00;0.00;;;;;;;;;;5036514;27;95237;-80
2022/05/25 13:46:35;;;;;;;;;;;;;;;;;;5010507;27;96146;-77
2022/05/25 13:49:17;;;;;;;0.10;0.10;;;;;;;;;;5042228;27;117052;-78
2022/05/25 13:51:44;;;;;;;10.05;0.32;;;;;;;;;;5023540;28;95355;-78
2022/05/25 14:05:59;;;;;;;0.05;0.05;;;;;;;;;;5024904;28;95808;-79
2022/05/25 14:12:31;;;;;;;0.10;0.10;;;;;;;;;;5022625;27;125828;-79
2022/05/25 14:15:19;;;;;;;0.00;0.00;;;;;;;;;;5039225;27;93393;-82
2022/05/25 14:17:58;;;;;;;0.10;0.10;;;;;;;;;;5025599;27;93908;-80
2022/05/25 14:20:27;;;;;;;0.10;0.10;;;;;;;;;;5025571;28;96230;-78
2022/05/25 14:22:53;;;;;;;0.10;0.10;;;;;;;;;;5044445;27;92540;-82
2022/05/25 14:25:43;;;;;;;0.10;0.10;;;;;;;;;;5036906;27;92898;-80
2022/05/25 14:29:24;;;;;;;;;;;;;;;;;;;;;
2022/05/25 14:33:06;;;;;;;0.10;0.10;;;;;;;;;;5010969;27;93147;-81
2022/05/25 14:36:43;;;;;;;1.08;0.50;;;;;;;;;;5016820;27;92598;-77
2022/05/25 14:39:14;;;;;;;0.00;0.00;;;;;;;;;;5021770;27;92379;-80
2022/05/25 14:41:41;;;;;;;;;;;;;;;;;;5016763;28;95948;-79
2022/05/25 14:44:08;;;;;;;0.10;0.10;;;;;;;;;;5020788;27;95370;-80
2022/05/25 14:46:38;;;;;;;0.10;0.10;;;;;;;;;;5021037;27;92344;-82
2022/05/25 14:49:14;;;;;;;0.05;0.05;;;;;;;;;;5039390;27;93232;-77
2022/05/25 14:51:47;;;;;;;0.07;0.07;;;;;;;;;;5021801;27;93220;-77
2022/05/25 14:54:19;;;;;;;0.47;0.47;;;;;;;;;;5038811;27;92429;-77
2022/05/25 14:56:49;;;;;;;0.08;0.08;;;;;;;;;;5021087;27;94047;-77
2022/05/25 14:59:29;;;;;;;0.00;0.00;;;;;;;;;;5041709;27;92707;-77
2022/05/25 15:01:57;;;;;;;0.05;0.05;;;;;;;;;;5038232;27;93309;-78
2022/05/25 15:04:29;;;;;;;0.22;0.22;;;;;;;;;;5021129;27;92832;-76
2022/05/25 15:06:56;;;;;;;0.20;0.20;;;;;;;;;;5018302;27;94806;-75
2022/05/25 15:09:31;;;;;;;0.10;0.10;;;;;;;;;;5038348;27;95670;-77
2022/05/25 15:12:33;;;;;;;0.10;0.10;;;;;;;;;;5038578;27;94159;-78
2022/05/25 15:20:49;;;;;;;0.03;0.03;;;;;;;;;;5038229;27;96128;-76
2022/05/25 15:23:31;;;;;;;0.10;0.10;;;;;;;;;;5006927;28;92453;-75
2022/05/25 15:26:07;;;;;;;0.00;0.00;;;;;;;;;;5038884;27;92158;-75
2022/05/25 15:28:35;;;;;;;0.10;0.10;;;;;;;;;;5037967;27;92874;-76
2022/05/25 15:31:13;;;;;;;0.00;0.00;;;;;;;;;;5020749;27;94239;-75
2022/05/25 15:33:41;;;;;;;0.10;0.10;;;;;;;;;;5036357;27;95537;-75
2022/05/25 15:36:18;;;;;;;0.00;0.00;;;;;;;;;;5037886;27;93301;-76
2022/05/25 15:38:47;;;;;;;0.00;0.00;;;;;;;;;;5037891;27;93406;-75
2022/05/25 15:41:15;;;;;;;0.00;0.00;;;;;;;;;;5022433;27;93787;-75
2022/05/25 15:43:41;;;;;;;0.05;0.05;;;;;;;;;;5041127;27;92370;-75
2022/05/25 15:46:14;;;;;;;0.00;0.00;;;;;;;;;;5037559;27;93758;-81
2022/05/25 15:48:43;;;;;;;0.00;0.00;;;;;;;;;;5037837;27;92385;-76
2022/05/25 15:51:10;;;;;;;0.10;0.10;;;;;;;;;;5041306;27;93672;-74
2022/05/25 15:53:37;;;;;;;8.35;0.65;;;;;;;;;;5037717;27;94114;-76
2022/05/25 15:56:04;;;;;;;0.05;0.05;;;;;;;;;;5038519;27;92329;-74
2022/05/25 15:58:33;;;;;;;0.00;0.00;;;;;;;;;;5036339;27;94822;-76
2022/05/25 16:00:59;;;;;;;0.40;0.40;;;;;;;;;;5040359;27;93742;-74
2022/05/25 16:03:29;;;;;;;0.10;0.10;;;;;;;;;;5037284;27;92286;-73
2022/05/25 16:05:57;;;;;;;0.00;0.00;;;;;;;;;;5037200;27;93398;-75
2022/05/25 16:11:16;;;;;;;0.00;0.00;;;;;;;;;;5044583;27;93326;-75
2022/05/25 16:13:43;;;;;;;0.00;0.00;;;;;;;;;;5038049;27;93084;-73
2022/05/25 16:16:09;;;;;;;0.63;0.63;;;;;;;;;;5038020;27;91615;-74